createdAt,value
2023-04-02T00:01:22.790Z,0.90
2023-04-02T00:03:54.051Z,0.80
2023-04-02T00:06:40.269Z,0.80
2023-04-02T00:09:13.401Z,0.90
2023-04-02T00:11:43.364Z,1.00
2023-04-02T00:14:23.246Z,1.00
2023-04-02T00:16:52.136Z,1.00
2023-04-02T00:19:30.603Z,1.10
2023-04-02T00:21:58.992Z,1.20
2023-04-02T00:24:25.896Z,1.20
2023-04-02T00:26:54.140Z,1.20
2023-04-02T00:29:21.385Z,1.20
2023-04-02T00:31:53.955Z,1.30
2023-04-02T00:34:31.757Z,1.40
2023-04-02T00:36:59.076Z,1.50
2023-04-02T00:39:28.797Z,1.50
2023-04-02T00:42:06.869Z,1.60
2023-04-02T00:44:42.758Z,1.60
2023-04-02T00:47:15.701Z,1.70
2023-04-02T00:49:42.933Z,1.80
2023-04-02T00:52:16.971Z,1.80
2023-04-02T00:55:06.529Z,1.90
2023-04-02T00:57:34.574Z,1.90
2023-04-02T01:00:13.762Z,1.90
2023-04-02T01:02:41.386Z,1.90
2023-04-02T01:05:17.665Z,2.00
2023-04-02T01:07:53.888Z,2.00
2023-04-02T01:10:42.053Z,2.00
2023-04-02T01:13:27.656Z,2.00
2023-04-02T01:16:16.251Z,2.00
2023-04-02T01:19:06.062Z,2.10
2023-04-02T01:22:05.065Z,2.10
2023-04-02T01:24:33.764Z,2.10
2023-04-02T01:27:19.278Z,2.10
2023-04-02T01:29:55.630Z,2.10
2023-04-02T01:32:25.480Z,2.10
2023-04-02T01:34:53.079Z,2.10
2023-04-02T01:37:58.745Z,2.10
2023-04-02T01:40:38.099Z,2.10
2023-04-02T01:43:42.019Z,2.10
2023-04-02T01:46:33.479Z,2.10
2023-04-02T01:49:03.192Z,2.10
2023-04-02T01:51:33.024Z,2.20
2023-04-02T01:54:02.175Z,2.10
2023-04-02T01:56:30.440Z,2.10
2023-04-02T01:58:58.441Z,2.10
2023-04-02T02:01:33.530Z,2.10
2023-04-02T02:04:01.460Z,2.10
2023-04-02T02:06:28.445Z,2.10
2023-04-02T02:08:59.532Z,2.10
2023-04-02T02:11:31.108Z,2.10
2023-04-02T02:14:00.768Z,2.10
2023-04-02T02:16:30.162Z,2.10
2023-04-02T02:19:01.675Z,2.10
2023-04-02T02:21:48.478Z,2.10
2023-04-02T02:24:28.525Z,2.00
2023-04-02T02:27:01.212Z,2.00
2023-04-02T02:29:31.509Z,2.00
2023-04-02T02:31:59.876Z,2.00
2023-04-02T02:34:36.224Z,1.90
2023-04-02T02:37:17.831Z,1.90
2023-04-02T02:39:46.760Z,1.90
2023-04-02T02:42:19.732Z,1.90
2023-04-02T02:44:52.148Z,1.90
2023-04-02T02:47:23.726Z,1.90
2023-04-02T02:49:54.192Z,1.90
2023-04-02T02:52:25.375Z,1.90
2023-04-02T02:55:01.838Z,1.90
2023-04-02T02:57:40.356Z,2.00
2023-04-02T03:00:09.881Z,1.90
2023-04-02T03:02:39.631Z,1.90
2023-04-02T03:05:07.626Z,1.90
2023-04-02T03:07:34.747Z,1.80
2023-04-02T03:10:16.996Z,1.80
2023-04-02T03:13:22.163Z,1.80
2023-04-02T03:15:58.762Z,1.80
2023-04-02T03:18:28.673Z,1.80
2023-04-02T03:21:13.659Z,1.90
2023-04-02T03:23:46.043Z,1.90
2023-04-02T03:26:12.785Z,1.80
2023-04-02T03:28:46.306Z,1.80
2023-04-02T03:31:23.220Z,1.80
2023-04-02T03:34:00.286Z,1.80
2023-04-02T03:36:43.642Z,1.80
2023-04-02T03:39:32.369Z,1.90
2023-04-02T03:42:05.047Z,1.90
2023-04-02T03:44:59.970Z,1.90
2023-04-02T03:47:32.933Z,1.90
2023-04-02T03:50:32.946Z,1.90
2023-04-02T03:53:00.340Z,2.00
2023-04-02T03:55:30.834Z,2.00
2023-04-02T03:58:24.955Z,2.00
2023-04-02T04:01:03.742Z,2.00
2023-04-02T04:03:36.627Z,2.10
2023-04-02T04:06:28.781Z,2.10
2023-04-02T04:09:00.488Z,2.10
2023-04-02T04:11:32.466Z,2.10
2023-04-02T04:14:18.443Z,2.10
2023-04-02T04:16:58.660Z,2.10
2023-04-02T04:19:30.081Z,2.10
2023-04-02T04:22:17.765Z,2.10
2023-04-02T04:24:48.122Z,2.10
2023-04-02T04:27:45.437Z,2.10
2023-04-02T04:30:18.363Z,2.10
2023-04-02T04:33:01.980Z,2.10
2023-04-02T04:35:36.749Z,2.10
2023-04-02T04:38:15.887Z,2.10
2023-04-02T04:40:53.867Z,2.10
2023-04-02T04:43:30.341Z,2.20
2023-04-02T04:46:03.740Z,2.20
2023-04-02T04:48:46.249Z,2.20
2023-04-02T04:51:54.041Z,2.20
2023-04-02T04:54:25.369Z,2.20
2023-04-02T04:56:56.421Z,2.20
2023-04-02T04:59:29.697Z,2.20
2023-04-02T05:02:11.570Z,2.20
2023-04-02T05:04:41.494Z,2.20
2023-04-02T05:07:17.251Z,2.30
2023-04-02T05:09:59.713Z,2.30
2023-04-02T05:13:03.821Z,2.30
2023-04-02T05:15:40.127Z,2.40
2023-04-02T05:18:21.989Z,2.40
2023-04-02T05:21:01.392Z,2.40
2023-04-02T05:23:31.267Z,2.50
2023-04-02T05:26:09.411Z,2.50
2023-04-02T05:28:42.650Z,2.50
2023-04-02T05:31:17.545Z,2.50
2023-04-02T05:33:49.725Z,2.50
2023-04-02T05:36:23.291Z,2.50
2023-04-02T05:38:51.254Z,2.60
2023-04-02T05:41:39.998Z,2.60
2023-04-02T05:44:08.999Z,2.60
2023-04-02T05:46:41.301Z,2.60
2023-04-02T05:49:17.929Z,2.70
2023-04-02T05:51:49.070Z,2.70
2023-04-02T05:54:38.252Z,2.80
2023-04-02T05:57:14.046Z,2.80
2023-04-02T05:59:48.572Z,2.80
2023-04-02T06:02:31.202Z,2.90
2023-04-02T06:05:17.400Z,2.90
2023-04-02T06:07:52.725Z,2.90
2023-04-02T06:10:30.015Z,3.00
2023-04-02T06:13:05.495Z,3.00
2023-04-02T06:15:33.947Z,3.00
2023-04-02T06:18:07.857Z,3.10
2023-04-02T06:20:35.872Z,3.10
2023-04-02T06:23:17.710Z,3.20
2023-04-02T06:26:09.931Z,3.20
2023-04-02T06:28:45.349Z,3.20
2023-04-02T06:31:30.490Z,3.30
2023-04-02T06:33:57.550Z,3.40
2023-04-02T06:36:27.041Z,3.40
2023-04-02T06:38:58.853Z,3.40
2023-04-02T06:41:25.913Z,3.50
2023-04-02T06:43:56.211Z,3.50
2023-04-02T06:46:38.269Z,3.60
2023-04-02T06:49:19.798Z,3.60
2023-04-02T06:51:49.413Z,3.60
2023-04-02T06:54:18.041Z,3.70
2023-04-02T06:56:53.887Z,3.80
2023-04-02T06:59:21.076Z,3.90
2023-04-02T07:02:14.102Z,4.00
2023-04-02T07:04:40.902Z,4.10
2023-04-02T07:07:07.740Z,4.10
2023-04-02T07:09:34.570Z,4.20
2023-04-02T07:12:01.559Z,4.20
2023-04-02T07:14:28.307Z,4.20
2023-04-02T07:16:55.229Z,4.20
2023-04-02T07:19:23.698Z,4.10
2023-04-02T07:21:50.445Z,4.30
2023-04-02T07:24:17.229Z,4.30
2023-04-02T07:26:44.236Z,4.40
2023-04-02T07:29:15.980Z,4.60
2023-04-02T07:31:42.951Z,4.90
2023-04-02T07:34:10.233Z,5.80
2023-04-02T07:36:37.088Z,5.60
2023-04-02T07:39:04.492Z,5.70
2023-04-02T07:41:31.454Z,5.80
2023-04-02T07:43:58.306Z,5.90
2023-04-02T07:46:26.002Z,6.40
2023-04-02T07:48:53.015Z,7.70
2023-04-02T07:51:23.432Z,9.00
2023-04-02T07:53:51.019Z,8.90
2023-04-02T07:56:21.016Z,7.70
2023-04-02T07:58:48.081Z,7.20
2023-04-02T08:01:26.303Z,7.00
2023-04-02T08:03:57.647Z,6.50
2023-04-02T08:06:25.632Z,7.00
2023-04-02T08:08:52.600Z,8.30
2023-04-02T08:11:19.744Z,9.10
2023-04-02T08:13:46.702Z,9.70
2023-04-02T08:16:13.680Z,10.90
2023-04-02T08:18:40.575Z,10.50
2023-04-02T08:21:08.889Z,9.70
2023-04-02T08:23:35.907Z,9.70
2023-04-02T08:29:33.831Z,11.50
2023-04-02T08:32:01.370Z,11.90
2023-04-02T08:34:29.325Z,12.40
2023-04-02T08:36:57.450Z,13.10
2023-04-02T08:39:27.052Z,12.70
2023-04-02T08:42:03.758Z,12.50
2023-04-02T08:44:36.694Z,12.50
2023-04-02T08:47:07.416Z,13.30
2023-04-02T08:50:01.052Z,13.80
2023-04-02T08:52:38.834Z,12.90
2023-04-02T08:55:34.014Z,12.70
2023-04-02T08:58:15.717Z,13.70
2023-04-02T09:00:45.640Z,14.00
2023-04-02T09:03:48.256Z,14.70
2023-04-02T09:06:18.938Z,14.60
2023-04-02T09:08:48.602Z,15.00
2023-04-02T09:11:31.864Z,15.40
2023-04-02T09:14:01.791Z,15.60
2023-04-02T09:16:43.557Z,16.20
2023-04-02T09:19:45.000Z,16.50
2023-04-02T09:22:27.247Z,16.40
2023-04-02T09:24:55.940Z,17.40
2023-04-02T09:27:25.716Z,16.50
2023-04-02T09:30:15.812Z,16.40
2023-04-02T09:32:48.519Z,15.60
2023-04-02T09:35:26.028Z,16.40
2023-04-02T09:38:17.020Z,16.40
2023-04-02T09:40:46.870Z,17.50
2023-04-02T09:43:15.469Z,17.30
2023-04-02T09:45:44.006Z,16.50
2023-04-02T09:48:53.386Z,14.40
2023-04-02T09:51:25.806Z,12.20
2023-04-02T09:54:04.892Z,11.60
2023-04-02T09:56:33.700Z,11.60
2023-04-02T09:59:13.214Z,11.10
2023-04-02T10:01:57.353Z,10.60
2023-04-02T10:04:44.380Z,9.60
2023-04-02T10:07:34.705Z,9.50
2023-04-02T10:10:16.164Z,9.00
2023-04-02T10:12:48.206Z,8.30
2023-04-02T10:18:44.135Z,8.00
2023-04-02T10:21:15.548Z,8.40
2023-04-02T10:23:42.594Z,9.20
2023-04-02T10:26:24.412Z,9.10
2023-04-02T10:29:16.948Z,10.80
2023-04-02T10:32:06.166Z,10.70
2023-04-02T10:34:36.450Z,11.50
2023-04-02T10:37:25.038Z,12.90
2023-04-02T10:39:58.815Z,14.70
2023-04-02T10:42:52.870Z,16.00
2023-04-02T10:45:22.731Z,16.50
2023-04-02T10:48:11.469Z,17.30
2023-04-02T10:50:49.603Z,17.80
2023-04-02T10:56:47.919Z,18.40
2023-04-02T10:59:24.634Z,17.00
2023-04-02T11:01:52.775Z,15.50
2023-04-02T11:04:25.137Z,13.40
2023-04-02T11:07:07.124Z,11.90
2023-04-02T11:09:46.053Z,12.70
2023-04-02T11:12:46.673Z,14.90
2023-04-02T11:15:18.955Z,15.90
2023-04-02T11:17:47.122Z,15.20
2023-04-02T11:20:43.855Z,15.40
2023-04-02T11:23:17.369Z,17.00
2023-04-02T11:25:45.248Z,15.90
2023-04-02T11:28:30.420Z,15.60
2023-04-02T11:30:57.742Z,13.10
2023-04-02T11:33:46.137Z,12.30
2023-04-02T11:36:51.124Z,11.70
2023-04-02T11:39:45.928Z,11.10
2023-04-02T11:42:18.503Z,10.80
2023-04-02T11:44:45.805Z,10.50
2023-04-02T11:47:30.881Z,10.90
2023-04-02T11:50:02.728Z,13.30
2023-04-02T11:52:37.887Z,15.80
2023-04-02T11:55:24.833Z,17.20
2023-04-02T11:58:28.935Z,16.50
2023-04-02T12:02:09.458Z,17.30
2023-04-02T12:04:45.514Z,17.60
2023-04-02T12:07:34.858Z,18.30
2023-04-02T12:10:20.705Z,18.50
2023-04-02T12:12:48.543Z,18.50
2023-04-02T12:15:37.039Z,19.20
2023-04-02T12:18:17.178Z,19.50
2023-04-02T12:20:52.818Z,18.70
2023-04-02T12:23:26.764Z,17.30
2023-04-02T12:25:58.529Z,17.60
2023-04-02T12:28:28.898Z,18.30
2023-04-02T12:31:19.009Z,18.00
2023-04-02T12:33:46.235Z,18.10
2023-04-02T12:36:16.014Z,16.70
2023-04-02T12:38:53.160Z,15.30
2023-04-02T12:41:24.377Z,16.20
2023-04-02T12:44:02.324Z,16.20
2023-04-02T12:46:31.507Z,15.10
2023-04-02T12:49:05.158Z,14.80
2023-04-02T12:51:32.772Z,15.30
2023-04-02T12:53:59.675Z,15.80
2023-04-02T12:56:27.188Z,14.70
2023-04-02T12:58:59.189Z,13.70
2023-04-02T13:01:28.311Z,13.50
2023-04-02T13:04:14.883Z,13.80
2023-04-02T13:06:49.404Z,13.00
2023-04-02T13:09:30.985Z,12.70
2023-04-02T13:12:32.446Z,12.60
2023-04-02T13:15:02.028Z,12.30
2023-04-02T13:17:43.056Z,11.70
2023-04-02T13:20:38.988Z,12.20
2023-04-02T13:23:24.382Z,12.30
2023-04-02T13:25:51.972Z,12.00
2023-04-02T13:28:19.359Z,12.80
2023-04-02T13:30:46.704Z,12.70
2023-04-02T13:33:14.719Z,12.40
2023-04-02T13:35:42.189Z,11.40
2023-04-02T13:38:09.234Z,11.00
2023-04-02T13:40:37.832Z,10.90
2023-04-02T13:43:06.597Z,11.00
2023-04-02T13:45:37.440Z,10.70
2023-04-02T13:48:05.732Z,10.10
2023-04-02T13:50:34.962Z,9.90
2023-04-02T13:53:09.029Z,11.00
2023-04-02T13:55:40.830Z,11.50
2023-04-02T13:58:07.809Z,11.20
2023-04-02T14:00:37.843Z,11.40
2023-04-02T14:03:11.952Z,11.20
2023-04-02T14:05:58.186Z,10.80
2023-04-02T14:08:52.252Z,10.00
2023-04-02T14:11:19.008Z,10.40
2023-04-02T14:14:03.658Z,11.20
2023-04-02T14:16:45.730Z,12.30
2023-04-02T14:19:52.695Z,11.60
2023-04-02T14:22:47.486Z,10.50
2023-04-02T14:25:22.504Z,9.60
2023-04-02T14:27:58.032Z,9.40
2023-04-02T14:30:53.592Z,10.00
2023-04-02T14:33:41.764Z,9.60
2023-04-02T14:36:15.566Z,9.20
2023-04-02T14:38:53.196Z,9.30
2023-04-02T14:41:30.401Z,10.20
2023-04-02T14:44:02.196Z,9.80
2023-04-02T14:46:32.019Z,9.20
2023-04-02T14:49:35.250Z,8.40
2023-04-02T14:52:10.049Z,8.20
2023-04-02T14:54:51.865Z,9.40
2023-04-02T14:57:27.855Z,10.00
2023-04-02T15:00:03.945Z,9.30
2023-04-02T15:02:45.526Z,9.10
2023-04-02T15:05:17.726Z,9.90
2023-04-02T15:08:07.016Z,11.20
2023-04-02T15:10:49.032Z,10.50
2023-04-02T15:13:21.233Z,9.40
2023-04-02T15:16:09.588Z,9.00
2023-04-02T15:18:38.362Z,9.10
2023-04-02T15:21:49.833Z,9.10
2023-04-02T15:24:43.470Z,10.10
2023-04-02T15:27:25.007Z,10.20
2023-04-02T15:30:14.940Z,10.60
2023-04-02T15:32:43.262Z,10.50
2023-04-02T15:35:20.300Z,9.70
2023-04-02T15:38:22.634Z,9.10
2023-04-02T15:40:53.516Z,9.80
2023-04-02T15:43:43.969Z,10.30
2023-04-02T15:46:23.174Z,10.60
2023-04-02T15:49:03.719Z,10.50
2023-04-02T15:51:49.986Z,10.30
2023-04-02T15:54:44.017Z,10.50
2023-04-02T15:57:34.978Z,9.60
2023-04-02T16:00:15.419Z,8.90
2023-04-02T16:02:50.870Z,9.30
2023-04-02T16:05:27.335Z,9.60
2023-04-02T16:08:39.301Z,10.00
2023-04-02T16:11:14.638Z,9.70
2023-04-02T16:13:43.794Z,9.60
2023-04-02T16:16:26.893Z,9.40
2023-04-02T16:19:17.221Z,9.30
2023-04-02T16:21:54.517Z,9.20
2023-04-02T16:24:22.517Z,9.10
2023-04-02T16:26:54.721Z,9.00
2023-04-02T16:29:50.969Z,8.80
2023-04-02T16:33:11.894Z,8.30
2023-04-02T16:35:50.051Z,7.70
2023-04-02T16:38:40.963Z,7.30
2023-04-02T16:41:19.757Z,7.10
2023-04-02T16:43:59.121Z,6.90
2023-04-02T16:47:04.568Z,6.90
2023-04-02T16:50:04.171Z,6.60
2023-04-02T16:56:42.017Z,6.00
2023-04-02T16:59:47.298Z,5.60
2023-04-02T17:02:20.544Z,5.40
2023-04-02T17:04:59.201Z,5.30
2023-04-02T17:07:33.384Z,5.10
2023-04-02T17:10:15.619Z,4.90
2023-04-02T17:12:47.487Z,4.80
2023-04-02T17:15:28.181Z,4.60
2023-04-02T17:18:01.921Z,4.50
2023-04-02T17:20:28.864Z,4.40
2023-04-02T17:22:56.978Z,4.30
2023-04-02T17:25:33.960Z,4.20
2023-04-02T17:28:02.560Z,4.10
2023-04-02T17:30:49.824Z,4.10
2023-04-02T17:33:18.910Z,4.00
2023-04-02T17:36:13.939Z,3.90
2023-04-02T17:38:47.147Z,3.80
2023-04-02T17:41:26.476Z,3.70
2023-04-02T17:44:11.108Z,3.60
2023-04-02T17:46:46.486Z,3.50
2023-04-02T17:49:34.405Z,3.50
2023-04-02T17:52:44.767Z,3.40
2023-04-02T17:56:04.864Z,3.30
2023-04-02T17:58:40.508Z,3.20
2023-04-02T18:01:22.583Z,3.10
2023-04-02T18:03:58.328Z,3.00
2023-04-02T18:06:25.063Z,2.90
2023-04-02T18:09:01.105Z,2.80
2023-04-02T18:12:01.550Z,2.80
2023-04-02T18:14:52.161Z,2.70
2023-04-02T18:17:40.555Z,2.60
2023-04-02T18:20:27.439Z,2.50
2023-04-02T18:23:01.328Z,2.40
2023-04-02T18:26:02.718Z,2.40
2023-04-02T18:28:47.912Z,2.30
2023-04-02T18:31:39.140Z,2.20
2023-04-02T18:34:37.023Z,2.10
2023-04-02T18:37:23.016Z,2.00
2023-04-02T18:40:26.408Z,2.00
2023-04-02T18:42:59.068Z,1.90
2023-04-02T18:45:41.667Z,1.90
2023-04-02T18:48:47.178Z,1.90
2023-04-02T18:51:23.363Z,1.80
2023-04-02T18:54:19.426Z,1.70
2023-04-02T18:57:28.784Z,1.70
2023-04-02T19:00:20.398Z,1.60
2023-04-02T19:03:07.527Z,1.50
2023-04-02T19:05:49.818Z,1.50
2023-04-02T19:08:36.066Z,1.50
2023-04-02T19:11:31.406Z,1.40
2023-04-02T19:14:04.987Z,1.40
2023-04-02T19:16:52.948Z,1.30
2023-04-02T19:19:22.431Z,1.30
2023-04-02T19:22:08.650Z,1.30
2023-04-02T19:25:13.031Z,1.30
2023-04-02T19:27:54.853Z,1.20
2023-04-02T19:30:39.050Z,1.20
2023-04-02T19:33:06.056Z,1.10
2023-04-02T19:35:55.442Z,1.10
2023-04-02T19:39:03.687Z,1.00
2023-04-02T19:41:36.623Z,1.00
2023-04-02T19:44:03.722Z,1.00
2023-04-02T19:46:30.721Z,0.90
2023-04-02T19:49:11.000Z,0.80
2023-04-02T19:51:37.739Z,0.80
2023-04-02T19:54:04.613Z,0.70
2023-04-02T19:56:31.437Z,0.70
2023-04-02T19:59:00.159Z,0.60
2023-04-02T20:01:29.213Z,0.50
2023-04-02T20:03:56.058Z,0.50
2023-04-02T20:06:22.852Z,0.40
2023-04-02T20:08:49.589Z,0.40
2023-04-02T20:11:16.370Z,0.30
2023-04-02T20:13:43.194Z,0.20
2023-04-02T20:16:10.087Z,0.20
2023-04-02T20:18:37.500Z,0.10
2023-04-02T20:21:06.219Z,0.10
2023-04-02T20:23:54.909Z,0.00
2023-04-02T20:26:22.604Z,0.00
2023-04-02T20:28:49.536Z,0.00
2023-04-02T20:31:18.186Z,0.00
2023-04-02T20:33:45.552Z,0.00
2023-04-02T20:36:15.613Z,-0.10
2023-04-02T20:38:43.336Z,-0.10
2023-04-02T20:41:10.507Z,-0.10
2023-04-02T20:43:40.432Z,-0.10
2023-04-02T20:46:10.041Z,-0.10
2023-04-02T20:48:38.057Z,-0.20
2023-04-02T20:51:06.710Z,-0.20
2023-04-02T20:53:34.943Z,-0.20
2023-04-02T20:56:13.804Z,-0.20
2023-04-02T20:58:41.411Z,-0.20
2023-04-02T21:01:25.918Z,-0.30
2023-04-02T21:04:00.980Z,-0.20
2023-04-02T21:06:33.632Z,-0.30
2023-04-02T21:09:03.230Z,-0.40
2023-04-02T21:11:30.480Z,-0.40
2023-04-02T21:13:58.064Z,-0.40
2023-04-02T21:16:28.694Z,-0.40
2023-04-02T21:18:58.394Z,-0.30
2023-04-02T21:21:25.848Z,-0.30
2023-04-02T21:24:01.506Z,-0.40
2023-04-02T21:26:32.455Z,-0.50
2023-04-02T21:29:00.518Z,-0.50
2023-04-02T21:31:29.617Z,-0.60
2023-04-02T21:33:58.466Z,-0.60
2023-04-02T21:36:29.946Z,-0.60
2023-04-02T21:39:02.247Z,-0.60
2023-04-02T21:41:30.612Z,-0.60
2023-04-02T21:43:58.806Z,-0.60
2023-04-02T21:46:28.040Z,-0.60
2023-04-02T21:48:57.700Z,-0.60
2023-04-02T21:51:26.641Z,-0.70
2023-04-02T21:53:54.296Z,-0.70
2023-04-02T21:56:26.959Z,-0.80
2023-04-02T21:58:53.886Z,-0.80
2023-04-02T22:01:27.223Z,-0.90
2023-04-02T22:03:56.147Z,-0.90
2023-04-02T22:06:25.014Z,-0.90
2023-04-02T22:08:54.643Z,-0.90
2023-04-02T22:11:24.768Z,-0.90
2023-04-02T22:13:52.067Z,-0.90
2023-04-02T22:16:24.159Z,-0.90
2023-04-02T22:18:52.537Z,-1.00
2023-04-02T22:21:20.239Z,-1.00
2023-04-02T22:23:49.275Z,-1.10
2023-04-02T22:26:17.703Z,-1.10
2023-04-02T22:28:45.364Z,-1.10
2023-04-02T22:31:14.994Z,-1.10
2023-04-02T22:33:43.009Z,-1.10
2023-04-02T22:36:10.970Z,-1.20
2023-04-02T22:38:37.882Z,-1.20
2023-04-02T22:41:09.242Z,-1.20
2023-04-02T22:43:37.006Z,-1.30
2023-04-02T22:46:05.544Z,-1.20
2023-04-02T22:48:32.773Z,-1.20
2023-04-02T22:50:59.725Z,-1.20
2023-04-02T22:53:26.983Z,-1.30
2023-04-02T22:55:53.818Z,-1.30
2023-04-02T22:58:39.523Z,-1.30
2023-04-02T23:01:18.682Z,-1.40
2023-04-02T23:03:46.136Z,-1.50
2023-04-02T23:06:16.222Z,-1.60
2023-04-02T23:08:43.028Z,-1.60
2023-04-02T23:11:18.973Z,-1.60
2023-04-02T23:13:48.309Z,-1.60
2023-04-02T23:16:16.265Z,-1.60
2023-04-02T23:18:46.156Z,-1.70
2023-04-02T23:21:13.207Z,-1.70
2023-04-02T23:23:40.345Z,-1.70
2023-04-02T23:26:10.295Z,-1.60
2023-04-02T23:28:38.124Z,-1.60
2023-04-02T23:31:07.634Z,-1.50
2023-04-02T23:33:34.845Z,-1.50
2023-04-02T23:36:11.322Z,-1.50
2023-04-02T23:38:38.287Z,-1.60
2023-04-02T23:41:05.139Z,-1.60
2023-04-02T23:43:31.932Z,-1.60
2023-04-02T23:45:58.696Z,-1.60
2023-04-02T23:48:25.590Z,-1.70
2023-04-02T23:50:52.609Z,-1.70
2023-04-02T23:53:19.480Z,-1.80
2023-04-02T23:55:46.239Z,-1.80
2023-04-02T23:58:13.088Z,-1.90
